EGEC/CAL METAR and TAF weather

Enter ICAO airport designator
Station Type Date Time Source
EGEC METAR 2019/11/18 14:20 UTC NOAA

EGEC 181420Z 11006KT 9999 FEW035 06/03 Q1017


Station Type Date Time Source
EGEC Decoded METAR 2019/11/18 14:20 UTC NOAA

Campbeltown, United Kingdom (EGEC) 55-26-14N 005-41-11W
Nov 18, 2019 - 09:20 AM EST / 2019.11.18 1420 UTC
Wind: from the ESE (110 degrees) at 7 MPH (6 KT):0
Visibility: greater than 7 mile(s):0
Sky conditions: mostly clear
Temperature: 42 F (6 C)
Dew Point: 37 F (3 C)
Relative Humidity: 81%
Pressure (altimeter): 30.03 in. Hg (1017 hPa)
ob: EGEC 181420Z 11006KT 9999 FEW035 06/03 Q1017
cycle: 14

Station Type Date Time Source
EGEC TAF UTC NOAA

Error!

Example: see airport list